Moab, UT (84532)

1:05 PM MST on February 14, 2016 (GMT -0700)
Moab | | Change Station
CLOSE
Current Station
Personal Weather Station
Location: Moab, UT
Elevation: 4239 ft
Nearby Weather Stations

Elev 4239 ft 38.55 °N, 109.52 °W | Updated 3 minutes ago

Mostly Cloudy
Mostly Cloudy
46.4 °F
Feels Like 46 °F
N
0.0
Wind Variable Wind from NNW
Gusts 2.0 mph

Today
High -- | Low -- °F
--% Chance of Precip.
Yesterday
High -- | Low -- °F
Precip. -- in
Pressure 30.14 in
Visibility 10.0 miles
Clouds Clear
Windchill 46 °F
Dew Point 36 °F
Humidity 67%
Rainfall 0.00 in
Snow Depth Not available.
7:10 AM 5:54 PM
Waxing Crescent, 45% visible
METAR KCNY 141953Z AUTO 00000KT 10SM CLR 07/02 A3012 RMK AO2 SLP205 T00670017
Pressure 30.14 in
Visibility 10.0 miles
Clouds Clear
Windchill 46 °F
Dew Point 36 °F
Humidity 67%
Rainfall 0.00 in
Snow Depth Not available.
7:10 AM 5:54 PM
Waxing Crescent, 45% visible
METAR KCNY 141953Z AUTO 00000KT 10SM CLR 07/02 A3012 RMK AO2 SLP205 T00670017

10-Day Weather Forecast

Almanac

Astronomy

Feb. 14, 2016 Rise Set
Actual Time
Civil Twilight
Nautical Twilight
Astronomical Twilight
Moon
Length of Visible Light
Length of Day
Tomorrow will be .
, % of the Moon is Illuminated

Today's Extremes

State Highs State Lows

Community

WunderPhotos

Upload Photos

1,892,880 photos uploaded!

WunderBlog® & News

Nearby

Air Quality

  Air Quality AQ Index Pollutant
Not available.

Snow Depth

Station Depth Elevation

Earthquake Activity

City Distance Mag. Time & Date
Minimum magnitude displayed is 2.5.

Coastal Water Temperatures

Place Temperature

Stations

Nearby Weather Stations

Station Location Temp. Windchill Dew Point Humidity Wind Precip. Elev Updated Type
                   

Watches & Warnings

There are currently no watches in effect.